sensor_id;sensor_type;location;lat;lon;timestamp;P1;durP1;ratioP1;P2;durP2;ratioP2
72720;SDS011;60835;50.974;10.322;2022-11-13T00:00:01;30.27;;;15.80;;
72720;SDS011;60835;50.974;10.322;2022-11-13T00:02:27;28.85;;;15.20;;
72720;SDS011;60835;50.974;10.322;2022-11-13T00:04:54;32.55;;;15.70;;
72720;SDS011;60835;50.974;10.322;2022-11-13T00:07:20;30.33;;;16.10;;
72720;SDS011;60835;50.974;10.322;2022-11-13T00:09:47;30.13;;;16.17;;
72720;SDS011;60835;50.974;10.322;2022-11-13T00:12:13;28.52;;;15.00;;
72720;SDS011;60835;50.974;10.322;2022-11-13T00:14:40;26.88;;;13.70;;
72720;SDS011;60835;50.974;10.322;2022-11-13T00:17:07;22.27;;;10.65;;
72720;SDS011;60835;50.974;10.322;2022-11-13T00:19:33;19.55;;;11.40;;
72720;SDS011;60835;50.974;10.322;2022-11-13T00:22:00;19.80;;;9.60;;
72720;SDS011;60835;50.974;10.322;2022-11-13T00:24:26;16.23;;;8.93;;
72720;SDS011;60835;50.974;10.322;2022-11-13T00:26:53;20.17;;;9.32;;
72720;SDS011;60835;50.974;10.322;2022-11-13T00:29:19;19.80;;;9.10;;
72720;SDS011;60835;50.974;10.322;2022-11-13T00:31:46;17.60;;;9.25;;
72720;SDS011;60835;50.974;10.322;2022-11-13T00:34:12;16.00;;;8.98;;
72720;SDS011;60835;50.974;10.322;2022-11-13T00:36:59;16.58;;;9.63;;
72720;SDS011;60835;50.974;10.322;2022-11-13T00:39:25;20.60;;;12.23;;
72720;SDS011;60835;50.974;10.322;2022-11-13T00:41:52;26.65;;;14.75;;
72720;SDS011;60835;50.974;10.322;2022-11-13T00:44:18;24.80;;;13.23;;
72720;SDS011;60835;50.974;10.322;2022-11-13T00:46:45;24.10;;;13.45;;
72720;SDS011;60835;50.974;10.322;2022-11-13T00:49:11;26.10;;;13.60;;
72720;SDS011;60835;50.974;10.322;2022-11-13T00:51:38;24.50;;;13.40;;
72720;SDS011;60835;50.974;10.322;2022-11-13T00:54:04;25.25;;;13.75;;
72720;SDS011;60835;50.974;10.322;2022-11-13T00:56:31;22.15;;;11.90;;
72720;SDS011;60835;50.974;10.322;2022-11-13T00:58:57;22.48;;;12.57;;
72720;SDS011;60835;50.974;10.322;2022-11-13T01:01:24;26.13;;;14.25;;
72720;SDS011;60835;50.974;10.322;2022-11-13T01:03:50;22.55;;;12.43;;
72720;SDS011;60835;50.974;10.322;2022-11-13T01:06:21;23.65;;;12.80;;
72720;SDS011;60835;50.974;10.322;2022-11-13T01:08:53;25.10;;;13.73;;
72720;SDS011;60835;50.974;10.322;2022-11-13T01:11:21;23.75;;;12.77;;
72720;SDS011;60835;50.974;10.322;2022-11-13T01:13:50;25.98;;;13.68;;
72720;SDS011;60835;50.974;10.322;2022-11-13T01:16:20;19.92;;;10.57;;
72720;SDS011;60835;50.974;10.322;2022-11-13T01:18:48;18.35;;;9.70;;
72720;SDS011;60835;50.974;10.322;2022-11-13T01:21:17;16.50;;;8.38;;
72720;SDS011;60835;50.974;10.322;2022-11-13T01:23:45;13.25;;;7.43;;
72720;SDS011;60835;50.974;10.322;2022-11-13T01:26:20;14.20;;;8.00;;
72720;SDS011;60835;50.974;10.322;2022-11-13T01:28:48;11.77;;;7.20;;
72720;SDS011;60835;50.974;10.322;2022-11-13T01:31:16;11.70;;;6.60;;
72720;SDS011;60835;50.974;10.322;2022-11-13T01:33:45;14.00;;;7.28;;
72720;SDS011;60835;50.974;10.322;2022-11-13T01:36:13;15.13;;;6.85;;
72720;SDS011;60835;50.974;10.322;2022-11-13T01:38:44;11.52;;;6.57;;
72720;SDS011;60835;50.974;10.322;2022-11-13T01:41:15;11.15;;;6.80;;
72720;SDS011;60835;50.974;10.322;2022-11-13T01:43:49;15.32;;;7.18;;
72720;SDS011;60835;50.974;10.322;2022-11-13T01:46:32;14.27;;;8.10;;
72720;SDS011;60835;50.974;10.322;2022-11-13T01:49:02;15.60;;;7.45;;
72720;SDS011;60835;50.974;10.322;2022-11-13T01:51:39;13.32;;;7.65;;
72720;SDS011;60835;50.974;10.322;2022-11-13T01:54:11;11.80;;;7.13;;
72720;SDS011;60835;50.974;10.322;2022-11-13T01:56:41;14.25;;;7.40;;
72720;SDS011;60835;50.974;10.322;2022-11-13T01:59:10;12.18;;;7.63;;
72720;SDS011;60835;50.974;10.322;2022-11-13T02:01:39;14.10;;;8.32;;
72720;SDS011;60835;50.974;10.322;2022-11-13T02:04:06;13.35;;;8.30;;
72720;SDS011;60835;50.974;10.322;2022-11-13T02:09:11;13.15;;;7.57;;
72720;SDS011;60835;50.974;10.322;2022-11-13T02:11:39;11.23;;;7.13;;
72720;SDS011;60835;50.974;10.322;2022-11-13T02:14:05;12.88;;;6.93;;
72720;SDS011;60835;50.974;10.322;2022-11-13T02:16:33;14.38;;;7.88;;
72720;SDS011;60835;50.974;10.322;2022-11-13T02:19:06;13.45;;;7.28;;
72720;SDS011;60835;50.974;10.322;2022-11-13T02:21:49;12.32;;;7.25;;
72720;SDS011;60835;50.974;10.322;2022-11-13T02:24:27;10.15;;;6.32;;
72720;SDS011;60835;50.974;10.322;2022-11-13T02:26:59;11.68;;;6.93;;
72720;SDS011;60835;50.974;10.322;2022-11-13T02:29:30;13.07;;;6.68;;
72720;SDS011;60835;50.974;10.322;2022-11-13T02:31:57;11.45;;;6.25;;
72720;SDS011;60835;50.974;10.322;2022-11-13T02:34:23;10.82;;;6.38;;
72720;SDS011;60835;50.974;10.322;2022-11-13T02:36:50;12.07;;;7.30;;
72720;SDS011;60835;50.974;10.322;2022-11-13T02:39:16;11.57;;;7.07;;
72720;SDS011;60835;50.974;10.322;2022-11-13T02:41:43;13.32;;;7.35;;
72720;SDS011;60835;50.974;10.322;2022-11-13T02:44:09;14.88;;;7.60;;
72720;SDS011;60835;50.974;10.322;2022-11-13T02:46:35;15.02;;;8.05;;
72720;SDS011;60835;50.974;10.322;2022-11-13T02:49:02;16.17;;;8.35;;
72720;SDS011;60835;50.974;10.322;2022-11-13T02:51:30;12.75;;;7.63;;
72720;SDS011;60835;50.974;10.322;2022-11-13T02:53:56;15.68;;;8.48;;
72720;SDS011;60835;50.974;10.322;2022-11-13T02:56:23;14.50;;;8.55;;
72720;SDS011;60835;50.974;10.322;2022-11-13T02:58:49;12.52;;;7.32;;
72720;SDS011;60835;50.974;10.322;2022-11-13T03:01:16;11.90;;;7.32;;
72720;SDS011;60835;50.974;10.322;2022-11-13T03:03:42;9.18;;;6.22;;
72720;SDS011;60835;50.974;10.322;2022-11-13T03:06:24;14.98;;;6.80;;
72720;SDS011;60835;50.974;10.322;2022-11-13T03:08:50;11.52;;;6.50;;
72720;SDS011;60835;50.974;10.322;2022-11-13T03:11:17;10.75;;;6.97;;
72720;SDS011;60835;50.974;10.322;2022-11-13T03:13:43;12.68;;;7.50;;
72720;SDS011;60835;50.974;10.322;2022-11-13T03:16:14;13.43;;;6.85;;
72720;SDS011;60835;50.974;10.322;2022-11-13T03:18:41;14.88;;;6.97;;
72720;SDS011;60835;50.974;10.322;2022-11-13T03:21:11;13.38;;;7.05;;
72720;SDS011;60835;50.974;10.322;2022-11-13T03:23:40;20.58;;;6.88;;
72720;SDS011;60835;50.974;10.322;2022-11-13T03:26:08;14.05;;;7.30;;
72720;SDS011;60835;50.974;10.322;2022-11-13T03:28:39;13.10;;;7.72;;
72720;SDS011;60835;50.974;10.322;2022-11-13T03:31:09;10.43;;;7.05;;
72720;SDS011;60835;50.974;10.322;2022-11-13T03:33:36;13.57;;;6.53;;
72720;SDS011;60835;50.974;10.322;2022-11-13T03:36:03;10.90;;;6.93;;
72720;SDS011;60835;50.974;10.322;2022-11-13T03:38:30;16.50;;;7.25;;
72720;SDS011;60835;50.974;10.322;2022-11-13T03:40:57;11.10;;;5.72;;
72720;SDS011;60835;50.974;10.322;2022-11-13T03:43:23;12.60;;;6.43;;
72720;SDS011;60835;50.974;10.322;2022-11-13T03:45:50;10.27;;;6.32;;
72720;SDS011;60835;50.974;10.322;2022-11-13T03:48:16;14.18;;;6.40;;
72720;SDS011;60835;50.974;10.322;2022-11-13T03:50:44;12.02;;;7.15;;
72720;SDS011;60835;50.974;10.322;2022-11-13T03:53:12;14.93;;;7.25;;
72720;SDS011;60835;50.974;10.322;2022-11-13T03:55:40;11.77;;;6.78;;
72720;SDS011;60835;50.974;10.322;2022-11-13T03:58:07;14.80;;;7.03;;
72720;SDS011;60835;50.974;10.322;2022-11-13T04:00:34;16.45;;;7.22;;
72720;SDS011;60835;50.974;10.322;2022-11-13T04:03:01;10.35;;;6.47;;
72720;SDS011;60835;50.974;10.322;2022-11-13T04:05:27;12.88;;;7.38;;
72720;SDS011;60835;50.974;10.322;2022-11-13T04:07:54;14.30;;;6.60;;
72720;SDS011;60835;50.974;10.322;2022-11-13T04:10:20;10.23;;;6.45;;
72720;SDS011;60835;50.974;10.322;2022-11-13T04:12:47;10.98;;;5.82;;
72720;SDS011;60835;50.974;10.322;2022-11-13T04:15:13;12.35;;;6.47;;
72720;SDS011;60835;50.974;10.322;2022-11-13T04:17:40;10.70;;;6.88;;
72720;SDS011;60835;50.974;10.322;2022-11-13T04:20:07;11.60;;;6.47;;
72720;SDS011;60835;50.974;10.322;2022-11-13T04:22:34;13.80;;;7.10;;
72720;SDS011;60835;50.974;10.322;2022-11-13T04:25:01;14.07;;;6.88;;
72720;SDS011;60835;50.974;10.322;2022-11-13T04:27:27;13.30;;;7.40;;
72720;SDS011;60835;50.974;10.322;2022-11-13T04:29:53;11.60;;;7.22;;
72720;SDS011;60835;50.974;10.322;2022-11-13T04:32:20;11.10;;;6.32;;
72720;SDS011;60835;50.974;10.322;2022-11-13T04:34:46;11.75;;;6.53;;
72720;SDS011;60835;50.974;10.322;2022-11-13T04:37:13;10.32;;;6.22;;
72720;SDS011;60835;50.974;10.322;2022-11-13T04:39:39;11.77;;;7.03;;
72720;SDS011;60835;50.974;10.322;2022-11-13T04:42:07;12.55;;;7.13;;
72720;SDS011;60835;50.974;10.322;2022-11-13T04:44:53;10.80;;;6.95;;
72720;SDS011;60835;50.974;10.322;2022-11-13T04:47:20;11.82;;;6.57;;
72720;SDS011;60835;50.974;10.322;2022-11-13T04:49:46;13.23;;;6.93;;
72720;SDS011;60835;50.974;10.322;2022-11-13T04:52:13;11.40;;;6.25;;
72720;SDS011;60835;50.974;10.322;2022-11-13T04:54:40;11.25;;;6.43;;
72720;SDS011;60835;50.974;10.322;2022-11-13T04:57:06;12.65;;;6.43;;
72720;SDS011;60835;50.974;10.322;2022-11-13T04:59:33;11.52;;;5.60;;
72720;SDS011;60835;50.974;10.322;2022-11-13T05:01:59;11.77;;;6.82;;
72720;SDS011;60835;50.974;10.322;2022-11-13T05:04:26;11.05;;;6.00;;
72720;SDS011;60835;50.974;10.322;2022-11-13T05:06:52;12.63;;;5.82;;
72720;SDS011;60835;50.974;10.322;2022-11-13T05:09:18;9.60;;;5.63;;
72720;SDS011;60835;50.974;10.322;2022-11-13T05:11:45;10.75;;;6.70;;
72720;SDS011;60835;50.974;10.322;2022-11-13T05:14:11;13.15;;;6.68;;
72720;SDS011;60835;50.974;10.322;2022-11-13T05:16:38;9.93;;;6.25;;
72720;SDS011;60835;50.974;10.322;2022-11-13T05:19:05;13.07;;;6.85;;
72720;SDS011;60835;50.974;10.322;2022-11-13T05:21:35;10.48;;;5.72;;
72720;SDS011;60835;50.974;10.322;2022-11-13T05:24:03;13.80;;;6.10;;
72720;SDS011;60835;50.974;10.322;2022-11-13T05:26:30;10.18;;;6.10;;
72720;SDS011;60835;50.974;10.322;2022-11-13T05:28:57;11.73;;;5.93;;
72720;SDS011;60835;50.974;10.322;2022-11-13T05:31:25;10.48;;;6.00;;
72720;SDS011;60835;50.974;10.322;2022-11-13T05:33:52;10.27;;;6.07;;
72720;SDS011;60835;50.974;10.322;2022-11-13T05:36:20;10.20;;;5.90;;
72720;SDS011;60835;50.974;10.322;2022-11-13T05:38:47;10.73;;;6.15;;
72720;SDS011;60835;50.974;10.322;2022-11-13T05:41:15;14.25;;;6.63;;
72720;SDS011;60835;50.974;10.322;2022-11-13T05:43:44;10.48;;;6.10;;
72720;SDS011;60835;50.974;10.322;2022-11-13T05:46:12;11.60;;;6.00;;
72720;SDS011;60835;50.974;10.322;2022-11-13T05:48:44;8.77;;;5.90;;
72720;SDS011;60835;50.974;10.322;2022-11-13T05:51:13;11.48;;;6.95;;
72720;SDS011;60835;50.974;10.322;2022-11-13T05:53:41;9.32;;;5.78;;
72720;SDS011;60835;50.974;10.322;2022-11-13T05:56:10;8.13;;;5.85;;
72720;SDS011;60835;50.974;10.322;2022-11-13T05:58:38;10.95;;;6.07;;
72720;SDS011;60835;50.974;10.322;2022-11-13T06:01:06;10.07;;;6.00;;
72720;SDS011;60835;50.974;10.322;2022-11-13T06:03:38;11.90;;;6.13;;
72720;SDS011;60835;50.974;10.322;2022-11-13T06:06:08;10.52;;;6.25;;
72720;SDS011;60835;50.974;10.322;2022-11-13T06:08:37;11.77;;;5.68;;
72720;SDS011;60835;50.974;10.322;2022-11-13T06:11:05;11.00;;;5.82;;
72720;SDS011;60835;50.974;10.322;2022-11-13T06:13:33;13.25;;;6.20;;
72720;SDS011;60835;50.974;10.322;2022-11-13T06:16:04;13.75;;;6.15;;
72720;SDS011;60835;50.974;10.322;2022-11-13T06:18:33;11.30;;;6.30;;
72720;SDS011;60835;50.974;10.322;2022-11-13T06:21:06;11.25;;;6.47;;
72720;SDS011;60835;50.974;10.322;2022-11-13T06:23:35;12.32;;;5.95;;
72720;SDS011;60835;50.974;10.322;2022-11-13T06:26:04;13.07;;;5.97;;
72720;SDS011;60835;50.974;10.322;2022-11-13T06:28:32;10.07;;;5.35;;
72720;SDS011;60835;50.974;10.322;2022-11-13T06:31:03;9.40;;;4.95;;
72720;SDS011;60835;50.974;10.322;2022-11-13T06:33:30;11.05;;;5.95;;
72720;SDS011;60835;50.974;10.322;2022-11-13T06:35:57;11.95;;;6.05;;
72720;SDS011;60835;50.974;10.322;2022-11-13T06:38:28;11.05;;;5.43;;
72720;SDS011;60835;50.974;10.322;2022-11-13T06:40:59;8.93;;;5.07;;
72720;SDS011;60835;50.974;10.322;2022-11-13T06:43:26;10.68;;;5.93;;
72720;SDS011;60835;50.974;10.322;2022-11-13T06:45:53;10.20;;;5.75;;
72720;SDS011;60835;50.974;10.322;2022-11-13T06:48:20;12.80;;;5.72;;
72720;SDS011;60835;50.974;10.322;2022-11-13T06:50:47;9.25;;;5.28;;
72720;SDS011;60835;50.974;10.322;2022-11-13T06:53:14;7.70;;;4.50;;
72720;SDS011;60835;50.974;10.322;2022-11-13T06:55:42;10.75;;;5.20;;
72720;SDS011;60835;50.974;10.322;2022-11-13T06:58:13;9.55;;;4.80;;
72720;SDS011;60835;50.974;10.322;2022-11-13T07:00:40;14.52;;;6.32;;
72720;SDS011;60835;50.974;10.322;2022-11-13T07:03:15;18.42;;;8.82;;
72720;SDS011;60835;50.974;10.322;2022-11-13T07:05:42;24.63;;;11.32;;
72720;SDS011;60835;50.974;10.322;2022-11-13T07:08:10;19.17;;;10.80;;
72720;SDS011;60835;50.974;10.322;2022-11-13T07:10:37;19.77;;;10.10;;
72720;SDS011;60835;50.974;10.322;2022-11-13T07:13:04;22.17;;;9.68;;
72720;SDS011;60835;50.974;10.322;2022-11-13T07:15:34;19.23;;;8.82;;
72720;SDS011;60835;50.974;10.322;2022-11-13T07:20:31;15.07;;;6.97;;
72720;SDS011;60835;50.974;10.322;2022-11-13T07:22:59;10.77;;;6.63;;
72720;SDS011;60835;50.974;10.322;2022-11-13T07:25:27;11.63;;;6.53;;
72720;SDS011;60835;50.974;10.322;2022-11-13T07:27:54;11.48;;;6.90;;
72720;SDS011;60835;50.974;10.322;2022-11-13T07:30:20;11.48;;;6.05;;
72720;SDS011;60835;50.974;10.322;2022-11-13T07:32:47;13.30;;;7.85;;
72720;SDS011;60835;50.974;10.322;2022-11-13T07:35:14;13.85;;;8.00;;
72720;SDS011;60835;50.974;10.322;2022-11-13T07:37:42;28.98;;;13.25;;
72720;SDS011;60835;50.974;10.322;2022-11-13T07:40:09;42.60;;;19.58;;
72720;SDS011;60835;50.974;10.322;2022-11-13T07:42:37;52.45;;;22.73;;
72720;SDS011;60835;50.974;10.322;2022-11-13T07:45:04;13.80;;;7.70;;
72720;SDS011;60835;50.974;10.322;2022-11-13T07:47:31;13.63;;;8.20;;
72720;SDS011;60835;50.974;10.322;2022-11-13T07:49:57;13.90;;;6.93;;
72720;SDS011;60835;50.974;10.322;2022-11-13T07:52:33;12.77;;;6.10;;
72720;SDS011;60835;50.974;10.322;2022-11-13T07:54:59;11.95;;;5.25;;
72720;SDS011;60835;50.974;10.322;2022-11-13T07:57:26;13.98;;;6.88;;
72720;SDS011;60835;50.974;10.322;2022-11-13T07:59:52;20.02;;;8.80;;
72720;SDS011;60835;50.974;10.322;2022-11-13T08:02:19;15.63;;;6.70;;
72720;SDS011;60835;50.974;10.322;2022-11-13T08:04:51;9.38;;;6.05;;
72720;SDS011;60835;50.974;10.322;2022-11-13T08:07:18;9.35;;;5.32;;
72720;SDS011;60835;50.974;10.322;2022-11-13T08:09:45;9.73;;;5.45;;
72720;SDS011;60835;50.974;10.322;2022-11-13T08:12:11;8.77;;;4.97;;
72720;SDS011;60835;50.974;10.322;2022-11-13T08:14:38;8.68;;;5.07;;
72720;SDS011;60835;50.974;10.322;2022-11-13T08:17:04;8.40;;;5.88;;
72720;SDS011;60835;50.974;10.322;2022-11-13T08:19:31;6.90;;;5.15;;
72720;SDS011;60835;50.974;10.322;2022-11-13T08:21:57;7.95;;;5.22;;
72720;SDS011;60835;50.974;10.322;2022-11-13T08:24:24;10.70;;;5.90;;
72720;SDS011;60835;50.974;10.322;2022-11-13T08:26:50;8.45;;;5.53;;
72720;SDS011;60835;50.974;10.322;2022-11-13T08:29:17;6.97;;;5.25;;
72720;SDS011;60835;50.974;10.322;2022-11-13T08:31:43;9.77;;;5.40;;
72720;SDS011;60835;50.974;10.322;2022-11-13T08:34:10;7.00;;;5.40;;
72720;SDS011;60835;50.974;10.322;2022-11-13T08:36:37;7.97;;;5.43;;
72720;SDS011;60835;50.974;10.322;2022-11-13T08:39:03;7.07;;;5.10;;
72720;SDS011;60835;50.974;10.322;2022-11-13T08:41:30;10.68;;;5.85;;
72720;SDS011;60835;50.974;10.322;2022-11-13T08:43:56;8.80;;;5.70;;
72720;SDS011;60835;50.974;10.322;2022-11-13T08:46:23;10.30;;;4.88;;
72720;SDS011;60835;50.974;10.322;2022-11-13T08:48:49;9.02;;;5.20;;
72720;SDS011;60835;50.974;10.322;2022-11-13T08:51:15;9.13;;;5.97;;
72720;SDS011;60835;50.974;10.322;2022-11-13T08:53:43;6.93;;;5.35;;
72720;SDS011;60835;50.974;10.322;2022-11-13T08:56:10;10.05;;;6.20;;
72720;SDS011;60835;50.974;10.322;2022-11-13T08:58:37;11.10;;;6.28;;
72720;SDS011;60835;50.974;10.322;2022-11-13T09:01:03;8.55;;;5.88;;
72720;SDS011;60835;50.974;10.322;2022-11-13T09:03:30;8.32;;;5.53;;
72720;SDS011;60835;50.974;10.322;2022-11-13T09:05:56;11.10;;;6.15;;
72720;SDS011;60835;50.974;10.322;2022-11-13T09:08:23;20.67;;;13.48;;
72720;SDS011;60835;50.974;10.322;2022-11-13T09:10:49;10.50;;;7.32;;
72720;SDS011;60835;50.974;10.322;2022-11-13T09:13:16;10.82;;;6.78;;
72720;SDS011;60835;50.974;10.322;2022-11-13T09:15:42;8.60;;;6.85;;
72720;SDS011;60835;50.974;10.322;2022-11-13T09:18:09;9.60;;;7.30;;
72720;SDS011;60835;50.974;10.322;2022-11-13T09:20:35;10.65;;;7.78;;
72720;SDS011;60835;50.974;10.322;2022-11-13T09:23:03;14.48;;;8.00;;
72720;SDS011;60835;50.974;10.322;2022-11-13T09:25:33;12.63;;;7.70;;
72720;SDS011;60835;50.974;10.322;2022-11-13T09:28:03;13.70;;;8.60;;
72720;SDS011;60835;50.974;10.322;2022-11-13T09:30:31;10.57;;;7.35;;
72720;SDS011;60835;50.974;10.322;2022-11-13T09:32:58;11.05;;;8.00;;
72720;SDS011;60835;50.974;10.322;2022-11-13T09:35:26;12.43;;;7.88;;
72720;SDS011;60835;50.974;10.322;2022-11-13T09:40:38;10.23;;;7.47;;
72720;SDS011;60835;50.974;10.322;2022-11-13T09:43:55;11.07;;;7.43;;
72720;SDS011;60835;50.974;10.322;2022-11-13T09:46:04;9.73;;;7.95;;
72720;SDS011;60835;50.974;10.322;2022-11-13T09:48:37;10.63;;;8.45;;
72720;SDS011;60835;50.974;10.322;2022-11-13T09:51:10;12.52;;;9.27;;
72720;SDS011;60835;50.974;10.322;2022-11-13T09:53:40;11.00;;;8.10;;
72720;SDS011;60835;50.974;10.322;2022-11-13T09:56:11;11.32;;;8.63;;
72720;SDS011;60835;50.974;10.322;2022-11-13T10:01:46;14.88;;;9.00;;
72720;SDS011;60835;50.974;10.322;2022-11-13T10:04:18;11.48;;;8.10;;
72720;SDS011;60835;50.974;10.322;2022-11-13T10:06:59;13.50;;;9.93;;
72720;SDS011;60835;50.974;10.322;2022-11-13T10:12:23;13.77;;;10.13;;
72720;SDS011;60835;50.974;10.322;2022-11-13T10:14:54;14.57;;;10.40;;
72720;SDS011;60835;50.974;10.322;2022-11-13T10:19:58;13.38;;;11.13;;
72720;SDS011;60835;50.974;10.322;2022-11-13T10:22:34;15.35;;;11.23;;
72720;SDS011;60835;50.974;10.322;2022-11-13T10:25:12;14.65;;;10.93;;
72720;SDS011;60835;50.974;10.322;2022-11-13T10:27:43;12.98;;;10.63;;
72720;SDS011;60835;50.974;10.322;2022-11-13T10:30:16;12.85;;;10.35;;
72720;SDS011;60835;50.974;10.322;2022-11-13T10:32:44;12.90;;;10.65;;
72720;SDS011;60835;50.974;10.322;2022-11-13T10:40:07;14.95;;;9.43;;
72720;SDS011;60835;50.974;10.322;2022-11-13T10:42:37;13.27;;;9.73;;
72720;SDS011;60835;50.974;10.322;2022-11-13T10:45:13;14.57;;;10.43;;
72720;SDS011;60835;50.974;10.322;2022-11-13T10:47:44;16.67;;;10.65;;
72720;SDS011;60835;50.974;10.322;2022-11-13T10:50:30;13.90;;;10.20;;
72720;SDS011;60835;50.974;10.322;2022-11-13T10:52:58;14.20;;;10.60;;
72720;SDS011;60835;50.974;10.322;2022-11-13T10:58:02;13.75;;;10.35;;
72720;SDS011;60835;50.974;10.322;2022-11-13T11:00:36;12.98;;;10.30;;
72720;SDS011;60835;50.974;10.322;2022-11-13T11:03:47;13.02;;;9.73;;
72720;SDS011;60835;50.974;10.322;2022-11-13T11:06:02;14.00;;;10.67;;
72720;SDS011;60835;50.974;10.322;2022-11-13T11:08:30;11.68;;;9.38;;
72720;SDS011;60835;50.974;10.322;2022-11-13T11:11:00;11.07;;;9.68;;
72720;SDS011;60835;50.974;10.322;2022-11-13T11:14:32;12.52;;;10.35;;
72720;SDS011;60835;50.974;10.322;2022-11-13T11:16:59;12.93;;;10.60;;
72720;SDS011;60835;50.974;10.322;2022-11-13T11:19:27;14.20;;;11.15;;
72720;SDS011;60835;50.974;10.322;2022-11-13T11:22:30;16.85;;;11.32;;
72720;SDS011;60835;50.974;10.322;2022-11-13T11:27:52;15.02;;;11.88;;
72720;SDS011;60835;50.974;10.322;2022-11-13T11:30:26;15.88;;;11.40;;
72720;SDS011;60835;50.974;10.322;2022-11-13T11:35:42;18.48;;;11.95;;
72720;SDS011;60835;50.974;10.322;2022-11-13T11:41:07;15.82;;;11.85;;
72720;SDS011;60835;50.974;10.322;2022-11-13T11:43:46;17.50;;;12.77;;
72720;SDS011;60835;50.974;10.322;2022-11-13T11:46:18;17.50;;;12.15;;
72720;SDS011;60835;50.974;10.322;2022-11-13T11:48:49;18.33;;;13.32;;
72720;SDS011;60835;50.974;10.322;2022-11-13T11:53:57;18.27;;;12.80;;
72720;SDS011;60835;50.974;10.322;2022-11-13T11:59:16;18.60;;;12.65;;
72720;SDS011;60835;50.974;10.322;2022-11-13T12:01:52;16.33;;;11.90;;
72720;SDS011;60835;50.974;10.322;2022-11-13T12:10:20;18.25;;;12.43;;
72720;SDS011;60835;50.974;10.322;2022-11-13T12:13:04;18.55;;;12.23;;
72720;SDS011;60835;50.974;10.322;2022-11-13T12:16:18;17.65;;;13.15;;
72720;SDS011;60835;50.974;10.322;2022-11-13T12:21:20;17.38;;;12.07;;
72720;SDS011;60835;50.974;10.322;2022-11-13T12:23:51;16.38;;;11.70;;
72720;SDS011;60835;50.974;10.322;2022-11-13T12:26:36;16.02;;;12.60;;
72720;SDS011;60835;50.974;10.322;2022-11-13T12:32:10;16.02;;;11.82;;
72720;SDS011;60835;50.974;10.322;2022-11-13T12:34:40;15.75;;;11.55;;
72720;SDS011;60835;50.974;10.322;2022-11-13T12:37:12;15.75;;;12.43;;
72720;SDS011;60835;50.974;10.322;2022-11-13T12:39:55;14.82;;;12.10;;
72720;SDS011;60835;50.974;10.322;2022-11-13T12:42:38;17.40;;;12.25;;
72720;SDS011;60835;50.974;10.322;2022-11-13T12:45:15;16.13;;;12.27;;
72720;SDS011;60835;50.974;10.322;2022-11-13T12:47:44;15.48;;;12.10;;
72720;SDS011;60835;50.974;10.322;2022-11-13T12:50:54;16.65;;;12.27;;
72720;SDS011;60835;50.974;10.322;2022-11-13T12:53:08;16.30;;;12.02;;
72720;SDS011;60835;50.974;10.322;2022-11-13T12:55:37;16.15;;;12.30;;
72720;SDS011;60835;50.974;10.322;2022-11-13T12:58:22;14.63;;;11.20;;
72720;SDS011;60835;50.974;10.322;2022-11-13T13:00:54;14.60;;;11.77;;
72720;SDS011;60835;50.974;10.322;2022-11-13T13:17:24;17.83;;;13.27;;
72720;SDS011;60835;50.974;10.322;2022-11-13T13:22:35;17.35;;;13.88;;
72720;SDS011;60835;50.974;10.322;2022-11-13T13:25:03;18.55;;;13.90;;
72720;SDS011;60835;50.974;10.322;2022-11-13T13:27:39;20.92;;;14.75;;
72720;SDS011;60835;50.974;10.322;2022-11-13T13:30:20;21.40;;;14.60;;
72720;SDS011;60835;50.974;10.322;2022-11-13T13:32:59;19.35;;;14.90;;
72720;SDS011;60835;50.974;10.322;2022-11-13T13:35:53;23.95;;;16.75;;
72720;SDS011;60835;50.974;10.322;2022-11-13T13:38:30;23.23;;;17.40;;
72720;SDS011;60835;50.974;10.322;2022-11-13T13:43:44;30.85;;;19.17;;
72720;SDS011;60835;50.974;10.322;2022-11-13T13:46:31;28.15;;;18.13;;
72720;SDS011;60835;50.974;10.322;2022-11-13T13:49:07;30.33;;;20.17;;
72720;SDS011;60835;50.974;10.322;2022-11-13T13:51:40;30.23;;;20.65;;
72720;SDS011;60835;50.974;10.322;2022-11-13T13:54:17;32.03;;;21.02;;
72720;SDS011;60835;50.974;10.322;2022-11-13T13:56:55;30.00;;;19.55;;
72720;SDS011;60835;50.974;10.322;2022-11-13T13:59:28;32.78;;;20.13;;
72720;SDS011;60835;50.974;10.322;2022-11-13T14:02:02;32.15;;;20.20;;
72720;SDS011;60835;50.974;10.322;2022-11-13T14:04:34;33.45;;;20.70;;
72720;SDS011;60835;50.974;10.322;2022-11-13T14:07:28;33.13;;;19.33;;
72720;SDS011;60835;50.974;10.322;2022-11-13T14:10:13;32.08;;;19.50;;
72720;SDS011;60835;50.974;10.322;2022-11-13T14:12:42;32.30;;;19.20;;
72720;SDS011;60835;50.974;10.322;2022-11-13T14:15:29;31.38;;;18.92;;
72720;SDS011;60835;50.974;10.322;2022-11-13T14:18:14;34.08;;;20.73;;
72720;SDS011;60835;50.974;10.322;2022-11-13T14:20:51;34.88;;;21.42;;
72720;SDS011;60835;50.974;10.322;2022-11-13T14:23:22;32.42;;;19.77;;
72720;SDS011;60835;50.974;10.322;2022-11-13T14:25:53;37.10;;;20.95;;
72720;SDS011;60835;50.974;10.322;2022-11-13T14:28:25;36.78;;;22.63;;
72720;SDS011;60835;50.974;10.322;2022-11-13T14:30:55;38.05;;;21.33;;
72720;SDS011;60835;50.974;10.322;2022-11-13T14:33:36;38.10;;;20.92;;
72720;SDS011;60835;50.974;10.322;2022-11-13T14:36:07;35.55;;;21.05;;
72720;SDS011;60835;50.974;10.322;2022-11-13T14:38:34;36.35;;;21.58;;
72720;SDS011;60835;50.974;10.322;2022-11-13T14:41:05;34.13;;;21.27;;
72720;SDS011;60835;50.974;10.322;2022-11-13T14:43:32;39.08;;;23.30;;
72720;SDS011;60835;50.974;10.322;2022-11-13T14:46:00;38.67;;;21.92;;
72720;SDS011;60835;50.974;10.322;2022-11-13T14:48:32;35.00;;;21.35;;
72720;SDS011;60835;50.974;10.322;2022-11-13T14:51:01;38.50;;;23.00;;
72720;SDS011;60835;50.974;10.322;2022-11-13T14:55:59;35.63;;;21.67;;
72720;SDS011;60835;50.974;10.322;2022-11-13T14:58:33;40.05;;;22.00;;
72720;SDS011;60835;50.974;10.322;2022-11-13T15:01:14;36.40;;;20.92;;
72720;SDS011;60835;50.974;10.322;2022-11-13T15:03:46;37.45;;;21.08;;
72720;SDS011;60835;50.974;10.322;2022-11-13T15:06:18;34.33;;;20.80;;
72720;SDS011;60835;50.974;10.322;2022-11-13T15:08:45;35.10;;;20.25;;
72720;SDS011;60835;50.974;10.322;2022-11-13T15:11:13;36.03;;;19.52;;
72720;SDS011;60835;50.974;10.322;2022-11-13T15:13:41;34.45;;;19.45;;
72720;SDS011;60835;50.974;10.322;2022-11-13T15:16:15;34.95;;;20.00;;
72720;SDS011;60835;50.974;10.322;2022-11-13T15:21:28;33.47;;;19.70;;
72720;SDS011;60835;50.974;10.322;2022-11-13T15:23:56;35.03;;;19.52;;
72720;SDS011;60835;50.974;10.322;2022-11-13T15:26:23;36.78;;;20.30;;
72720;SDS011;60835;50.974;10.322;2022-11-13T15:28:49;36.63;;;20.80;;
72720;SDS011;60835;50.974;10.322;2022-11-13T15:31:19;32.85;;;19.67;;
72720;SDS011;60835;50.974;10.322;2022-11-13T15:33:49;33.15;;;19.85;;
72720;SDS011;60835;50.974;10.322;2022-11-13T15:36:17;33.58;;;19.98;;
72720;SDS011;60835;50.974;10.322;2022-11-13T15:38:43;37.58;;;20.20;;
72720;SDS011;60835;50.974;10.322;2022-11-13T15:41:11;31.85;;;18.98;;
72720;SDS011;60835;50.974;10.322;2022-11-13T15:43:41;37.38;;;19.20;;
72720;SDS011;60835;50.974;10.322;2022-11-13T15:46:10;38.15;;;20.85;;
72720;SDS011;60835;50.974;10.322;2022-11-13T15:48:39;36.95;;;20.08;;